Huesca, Spain
Current Conditions -  °F | °C
As of 12:00 PM on Friday 31 Oct 2014 (Local Time) from LEHC Reporting Station
Scattered Clouds Scattered Clouds  
Wind Chill: 17°   Ceiling: Unl
Heat Index: 17°   Visibility: 4mi
Dew Point: 13°   Wind: 6mph
Humidity: 77%   Direction: 110°ESE
Pressure: 30.3"   Gusts: NA
Location:  42.14°N, 0.41°W
Report Text: LEHC 311100Z 11005KT 050V150 7000 SCT015 17/13 Q1026
Loading
Personal Weather Stations






























Interactive Weather Map
Tropical Storm Tracking
New forecast layout! Learn more

10-Day Weather Forecast

Advertisements
Track Severe Weather on mobile